Belhaven, North Carolina
Current Conditions -  °F | °C
As of 2:55 PM on Monday 24 Nov 2014 (Local Time) from KOCW Reporting Station
Overcast Overcast  
Wind Chill: 69°   Ceiling: 1500
Heat Index: 69°   Visibility: 7mi
Dew Point: 67°   Wind: 7mph
Humidity: 93%   Direction: 190°S
Pressure: 29.83"   Gusts: NA
Location:  35.54°N, 76.62°W
Report Text: KOCW 241955Z AUTO 19006KT 7SM SCT009 BKN015 OVC060 21/20 A2983 RMK AO2 T02060195
Loading
Personal Weather Stations






























Interactive Weather Map New forecast layout! Learn more

10-Day Weather Forecast

Advertisements
Track Severe Weather on mobile